createdAt,value
2019-05-07T00:03:12.371Z,98227.00
2019-05-07T00:08:19.453Z,98232.00
2019-05-07T00:13:27.407Z,98233.00
2019-05-07T00:18:36.215Z,98223.00
2019-05-07T00:23:44.170Z,98225.00
2019-05-07T00:28:52.678Z,98222.00
2019-05-07T00:34:02.847Z,98224.00
2019-05-07T00:39:27.625Z,98228.00
2019-05-07T00:44:37.186Z,98225.00
2019-05-07T00:49:45.307Z,98224.00
2019-05-07T00:54:53.427Z,98215.00
2019-05-07T01:00:02.150Z,98223.00
2019-05-07T01:05:12.316Z,98218.00
2019-05-07T01:10:22.139Z,98210.00
2019-05-07T01:15:34.251Z,98210.00
2019-05-07T01:20:42.347Z,98216.00
2019-05-07T01:25:52.628Z,98214.00
2019-05-07T01:31:02.200Z,98220.00
2019-05-07T01:36:17.163Z,98211.00
2019-05-07T01:41:24.323Z,98207.00
2019-05-07T01:46:32.445Z,98202.00
2019-05-07T01:51:42.303Z,98201.00
2019-05-07T01:56:52.140Z,98205.00
2019-05-07T02:02:02.866Z,98216.00
2019-05-07T02:07:22.583Z,98203.00
2019-05-07T02:12:32.021Z,98202.00
2019-05-07T02:17:39.331Z,98203.00
2019-05-07T02:22:47.188Z,98204.00
2019-05-07T02:27:54.003Z,98196.00
2019-05-07T02:33:03.739Z,98197.00
2019-05-07T02:38:14.018Z,98194.00
2019-05-07T02:43:22.755Z,98202.00
2019-05-07T02:48:45.020Z,98182.00
2019-05-07T02:53:59.760Z,98193.00
2019-05-07T02:59:08.305Z,98195.00
2019-05-07T03:04:20.493Z,98186.00
2019-05-07T03:09:28.677Z,98195.00
2019-05-07T03:14:35.818Z,98175.00
2019-05-07T03:19:46.310Z,98190.00
2019-05-07T03:24:58.633Z,98190.00
2019-05-07T03:30:28.530Z,98196.00
2019-05-07T03:35:47.354Z,98197.00
2019-05-07T03:40:55.753Z,98195.00
2019-05-07T03:46:04.467Z,98184.00
2019-05-07T03:51:13.178Z,98195.00
2019-05-07T03:56:23.717Z,98197.00
2019-05-07T04:01:33.416Z,98197.00
2019-05-07T04:06:43.430Z,98206.00
2019-05-07T04:11:53.386Z,98210.00
2019-05-07T04:17:21.842Z,98211.00
2019-05-07T04:22:28.625Z,98209.00
2019-05-07T04:27:53.801Z,98215.00
2019-05-07T04:33:03.736Z,98214.00
2019-05-07T04:38:13.645Z,98212.00
2019-05-07T04:43:23.268Z,98219.00
2019-05-07T04:48:33.757Z,98242.00
2019-05-07T04:53:54.110Z,98237.00
2019-05-07T04:59:03.584Z,98236.00
2019-05-07T05:04:25.797Z,98235.00
2019-05-07T05:09:23.487Z,98239.00
2019-05-07T05:14:33.823Z,98239.00
2019-05-07T05:19:43.869Z,98238.00
2019-05-07T05:25:05.105Z,98247.00
2019-05-07T05:30:24.323Z,98254.00
2019-05-07T05:35:32.547Z,98254.00
2019-05-07T05:40:39.682Z,98252.00
2019-05-07T05:45:49.286Z,98257.00
2019-05-07T05:51:13.367Z,98250.00
2019-05-07T05:56:24.971Z,98256.00
2019-05-07T06:01:35.283Z,98249.00
2019-05-07T06:06:46.843Z,98254.00
2019-05-07T06:12:12.608Z,98260.00
2019-05-07T06:17:26.747Z,98264.00
2019-05-07T06:22:44.492Z,98260.00
2019-05-07T06:27:53.325Z,98258.00
2019-05-07T06:33:02.868Z,98259.00
2019-05-07T06:38:12.461Z,98264.00
2019-05-07T06:43:23.307Z,98272.00
2019-05-07T06:48:40.122Z,98284.00
2019-05-07T06:53:42.299Z,98270.00
2019-05-07T06:58:52.819Z,98282.00
2019-05-07T07:04:14.766Z,98267.00
2019-05-07T07:09:34.961Z,98274.00
2019-05-07T07:14:44.065Z,98272.00
2019-05-07T07:19:52.314Z,98271.00
2019-05-07T07:25:02.543Z,98258.00
2019-05-07T07:30:13.103Z,98260.00
2019-05-07T07:35:22.610Z,98260.00
2019-05-07T07:40:38.442Z,98255.00
2019-05-07T07:45:46.676Z,98260.00
2019-05-07T07:50:53.872Z,98271.00
2019-05-07T07:56:22.970Z,98263.00
2019-05-07T08:01:43.390Z,98270.00
2019-05-07T08:07:04.110Z,98268.00
2019-05-07T08:12:12.854Z,98278.00
2019-05-07T08:17:22.357Z,98291.00
2019-05-07T08:22:32.957Z,98294.00
2019-05-07T08:27:41.977Z,98292.00
2019-05-07T08:32:53.291Z,98282.00
2019-05-07T08:38:02.299Z,98289.00
2019-05-07T08:43:12.621Z,98291.00
2019-05-07T08:48:25.048Z,98298.00
2019-05-07T08:53:34.257Z,98297.00
2019-05-07T08:58:54.051Z,98295.00
2019-05-07T09:04:02.480Z,98286.00
2019-05-07T09:09:14.748Z,98284.00
2019-05-07T09:14:25.783Z,98281.00
2019-05-07T09:19:46.909Z,98284.00
2019-05-07T09:24:42.798Z,98253.00
2019-05-07T09:29:52.436Z,98268.00
2019-05-07T09:35:12.501Z,98261.00
2019-05-07T09:40:21.640Z,98275.00
2019-05-07T09:45:29.650Z,98271.00
2019-05-07T09:50:37.854Z,98270.00
2019-05-07T09:55:45.970Z,98258.00
2019-05-07T10:00:54.214Z,98251.00
2019-05-07T10:06:02.195Z,98241.00
2019-05-07T10:11:12.226Z,98244.00
2019-05-07T10:16:29.002Z,98264.00
2019-05-07T10:21:42.444Z,98266.00
2019-05-07T10:26:53.125Z,98236.00
2019-05-07T10:32:02.514Z,98228.00
2019-05-07T10:37:12.135Z,98237.00
2019-05-07T10:42:20.168Z,98231.00
2019-05-07T10:47:38.808Z,98220.00
2019-05-07T10:52:47.507Z,98244.00
2019-05-07T10:57:55.920Z,98236.00
2019-05-07T11:03:04.528Z,98226.00
2019-05-07T11:08:11.835Z,98227.00
2019-05-07T11:13:21.845Z,98230.00
2019-05-07T11:18:38.002Z,98221.00
2019-05-07T11:23:49.096Z,98200.00
2019-05-07T11:29:02.512Z,98198.00
2019-05-07T11:34:11.968Z,98203.00
2019-05-07T11:39:22.662Z,98192.00
2019-05-07T11:44:32.744Z,98203.00
2019-05-07T11:50:00.225Z,98193.00
2019-05-07T11:55:12.015Z,98207.00
2019-05-07T12:00:36.127Z,98207.00
2019-05-07T12:05:46.094Z,98200.00
2019-05-07T12:10:54.357Z,98201.00
2019-05-07T12:16:03.774Z,98204.00
2019-05-07T12:21:20.642Z,98196.00
2019-05-07T12:26:23.307Z,98208.00
2019-05-07T12:31:35.524Z,98205.00
2019-05-07T12:36:43.680Z,98184.00
2019-05-07T12:41:53.461Z,98175.00
2019-05-07T12:47:04.502Z,98187.00
2019-05-07T12:52:14.133Z,98183.00
2019-05-07T12:57:23.398Z,98183.00
2019-05-07T13:02:42.070Z,98186.00
2019-05-07T13:07:50.207Z,98176.00
2019-05-07T13:13:02.062Z,98175.00
2019-05-07T13:18:12.724Z,98156.00
2019-05-07T13:23:22.506Z,98157.00
2019-05-07T13:28:30.657Z,98156.00
2019-05-07T13:33:42.107Z,98143.00
2019-05-07T13:38:56.427Z,98155.00
2019-05-07T13:44:12.371Z,98148.00
2019-05-07T13:49:22.088Z,98148.00
2019-05-07T13:54:32.388Z,98132.00
2019-05-07T13:59:42.476Z,98140.00
2019-05-07T14:04:52.610Z,98135.00
2019-05-07T14:10:02.140Z,98123.00
2019-05-07T14:15:09.531Z,98132.00
2019-05-07T14:20:19.283Z,98130.00
2019-05-07T14:25:26.421Z,98129.00
2019-05-07T14:30:33.532Z,98105.00
2019-05-07T14:35:42.690Z,98105.00
2019-05-07T14:40:51.990Z,98111.00
2019-05-07T14:45:59.341Z,98102.00
2019-05-07T14:51:07.218Z,98106.00
2019-05-07T14:56:17.073Z,98115.00
2019-05-07T15:01:28.312Z,98102.00
2019-05-07T15:06:36.448Z,98099.00
2019-05-07T15:11:44.207Z,98103.00
2019-05-07T15:16:54.012Z,98109.00
2019-05-07T15:22:22.812Z,98103.00
2019-05-07T15:27:32.350Z,98105.00
2019-05-07T15:32:42.763Z,98102.00
2019-05-07T15:37:51.806Z,98099.00
2019-05-07T15:42:59.290Z,98103.00
2019-05-07T15:48:07.385Z,98103.00
2019-05-07T15:53:17.585Z,98104.00
2019-05-07T15:58:26.013Z,98100.00
2019-05-07T16:03:38.845Z,98096.00
2019-05-07T16:08:49.174Z,98103.00
2019-05-07T16:14:06.863Z,98101.00
2019-05-07T16:19:18.988Z,98096.00
2019-05-07T16:24:27.837Z,98095.00
2019-05-07T16:29:36.939Z,98089.00
2019-05-07T16:34:47.139Z,98097.00
2019-05-07T16:39:54.437Z,98099.00
2019-05-07T16:45:02.872Z,98094.00
2019-05-07T16:50:13.032Z,98089.00
2019-05-07T16:55:25.378Z,98096.00
2019-05-07T17:00:49.894Z,98105.00
2019-05-07T17:06:01.772Z,98092.00
2019-05-07T17:11:08.771Z,98099.00
2019-05-07T17:16:17.811Z,98096.00
2019-05-07T17:21:25.122Z,98097.00
2019-05-07T17:26:32.522Z,98093.00
2019-05-07T17:31:44.328Z,98085.00
2019-05-07T17:36:54.808Z,98091.00
2019-05-07T17:42:05.793Z,98097.00
2019-05-07T17:47:15.798Z,98092.00
2019-05-07T17:52:23.690Z,98079.00
2019-05-07T17:57:33.327Z,98086.00
2019-05-07T18:02:54.561Z,98086.00
2019-05-07T18:08:03.507Z,98090.00
2019-05-07T18:13:12.461Z,98091.00
2019-05-07T18:18:22.771Z,98090.00
2019-05-07T18:23:32.192Z,98097.00
2019-05-07T18:28:41.707Z,98088.00
2019-05-07T18:33:53.041Z,98081.00
2019-05-07T18:39:01.728Z,98078.00
2019-05-07T18:44:15.317Z,98088.00
2019-05-07T18:49:23.042Z,98086.00
2019-05-07T18:54:49.162Z,98087.00
2019-05-07T18:59:58.118Z,98084.00
2019-05-07T19:05:08.297Z,98091.00
2019-05-07T19:10:17.990Z,98089.00
2019-05-07T19:15:27.946Z,98091.00
2019-05-07T19:20:42.475Z,98096.00
2019-05-07T19:25:52.539Z,98088.00
2019-05-07T19:31:05.679Z,98084.00
2019-05-07T19:36:16.188Z,98089.00
2019-05-07T19:41:25.716Z,98076.00
2019-05-07T19:46:36.497Z,98081.00
2019-05-07T19:51:47.365Z,98067.00
2019-05-07T19:56:59.091Z,98075.00
2019-05-07T20:02:12.260Z,98078.00
2019-05-07T20:07:21.363Z,98070.00
2019-05-07T20:12:29.146Z,98061.00
2019-05-07T20:17:41.935Z,98066.00
2019-05-07T20:22:52.524Z,98059.00
2019-05-07T20:28:02.203Z,98044.00
2019-05-07T20:33:14.591Z,98038.00
2019-05-07T20:38:24.780Z,98045.00
2019-05-07T20:43:33.316Z,98038.00
2019-05-07T20:48:42.469Z,98041.00
2019-05-07T20:53:52.362Z,98035.00
2019-05-07T20:59:04.898Z,98033.00
2019-05-07T21:04:13.320Z,98035.00
2019-05-07T21:09:22.171Z,98031.00
2019-05-07T21:14:29.585Z,98024.00
2019-05-07T21:19:37.876Z,98024.00
2019-05-07T21:24:46.853Z,98015.00
2019-05-07T21:29:53.932Z,98005.00
2019-05-07T21:35:02.092Z,98001.00
2019-05-07T21:40:10.283Z,98000.00
2019-05-07T21:45:19.452Z,97995.00
2019-05-07T21:50:26.663Z,98003.00
2019-05-07T21:55:39.482Z,97993.00
2019-05-07T22:00:54.107Z,97990.00
2019-05-07T22:06:05.824Z,97989.00
2019-05-07T22:11:15.122Z,97990.00
2019-05-07T22:16:23.244Z,97986.00
2019-05-07T22:21:34.202Z,97987.00
2019-05-07T22:26:42.350Z,97989.00
2019-05-07T22:31:57.856Z,97981.00
2019-05-07T22:37:12.605Z,97987.00
2019-05-07T22:42:24.331Z,97976.00
2019-05-07T23:08:43.643Z,97948.00
2019-05-07T23:13:54.873Z,97932.00
2019-05-07T23:19:03.989Z,97911.00
2019-05-07T23:24:12.890Z,97905.00
2019-05-07T23:29:22.534Z,97908.00
2019-05-07T23:34:32.596Z,97903.00
2019-05-07T23:39:43.242Z,97899.00
2019-05-07T23:44:52.460Z,97894.00
2019-05-07T23:50:02.132Z,97887.00
2019-05-07T23:55:12.208Z,97881.00
